BNG weather

Banning Municipal Airport
Banning, California, United States

Public forecast

Using degrees Fahrenheit for public forecast. Weather courtesy of forecast.io.

Closest aviation weather report (METAR) to Banning Municipal Airport

Closest report is Palm Springs International Airport, 18.0 nm (33.4 km) ESE. Retrieved 2019/12/08 19:53 UTC (50 minutes ago):

KPSP 081953Z 00000KT 10SM SCT090 17/12 A3001 RMK AO2 SLP163 T01720117

Closest aviation forecast (TAF) to Banning Municipal Airport

Closest forecast is Palm Springs International Airport, 18.0 nm (33.4 km) ESE. Retrieved 2019/12/08 18:22 UTC (2 hours ago):

TAF KPSP 081720Z 0818/0918 VRB04KT 5SM HZ FEW050 OVC120 FM082100 33010KT P6SM SCT120 BKN250 FM090600 VRB05KT P6SM SKC